Oakes, North Dakota
Current Conditions -  °F | °C
As of 2:15 PM on Friday 31 Oct 2014 (Local Time) from KGWR Reporting Station
Clear Clear  
Wind Chill: -1°   Ceiling: Unl
Heat Index:   Visibility: 10mi
Dew Point: -5°   Wind: 10mph
Humidity: 56%   Direction: 180°S
Pressure: 30.5"   Gusts: NA
Location:  46.14°N, 98.09°W
Report Text: KGWR 311915Z AUTO 18009KT 10SM CLR 03/M05 A3050 RMK A01 P000
Loading
Personal Weather Stations






























Interactive Weather Map
Tropical Storm Tracking
New forecast layout! Learn more

10-Day Weather Forecast

Advertisements
Track Severe Weather on mobile